sensor_id;sensor_type;location;lat;lon;timestamp;P1;durP1;ratioP1;P2;durP2;ratioP2
40827;SDS011;26549;50.918;5.338;2023-05-16T00:00:28;11.07;;;2.63;;
40827;SDS011;26549;50.918;5.338;2023-05-16T00:02:59;7.50;;;2.22;;
40827;SDS011;26549;50.918;5.338;2023-05-16T00:05:27;6.47;;;2.30;;
40827;SDS011;26549;50.918;5.338;2023-05-16T00:07:53;8.55;;;2.40;;
40827;SDS011;26549;50.918;5.338;2023-05-16T00:10:18;24.48;;;3.17;;
40827;SDS011;26549;50.918;5.338;2023-05-16T00:12:45;17.08;;;2.97;;
40827;SDS011;26549;50.918;5.338;2023-05-16T00:15:16;12.88;;;2.45;;
40827;SDS011;26549;50.918;5.338;2023-05-16T00:17:44;13.43;;;2.17;;
40827;SDS011;26549;50.918;5.338;2023-05-16T00:20:13;12.35;;;3.78;;
40827;SDS011;26549;50.918;5.338;2023-05-16T00:22:41;11.13;;;3.05;;
40827;SDS011;26549;50.918;5.338;2023-05-16T00:25:07;12.93;;;2.28;;
40827;SDS011;26549;50.918;5.338;2023-05-16T00:27:34;10.57;;;2.20;;
40827;SDS011;26549;50.918;5.338;2023-05-16T00:30:03;14.60;;;2.40;;
40827;SDS011;26549;50.918;5.338;2023-05-16T00:32:30;11.88;;;2.85;;
40827;SDS011;26549;50.918;5.338;2023-05-16T00:34:56;11.10;;;2.78;;
40827;SDS011;26549;50.918;5.338;2023-05-16T00:37:22;11.70;;;3.17;;
40827;SDS011;26549;50.918;5.338;2023-05-16T00:39:48;10.60;;;2.70;;
40827;SDS011;26549;50.918;5.338;2023-05-16T00:42:13;10.95;;;2.42;;
40827;SDS011;26549;50.918;5.338;2023-05-16T00:44:39;7.00;;;1.98;;
40827;SDS011;26549;50.918;5.338;2023-05-16T00:47:05;14.07;;;2.08;;
40827;SDS011;26549;50.918;5.338;2023-05-16T00:49:32;14.63;;;3.03;;
40827;SDS011;26549;50.918;5.338;2023-05-16T00:51:58;12.05;;;3.13;;
40827;SDS011;26549;50.918;5.338;2023-05-16T00:54:25;11.43;;;3.30;;
40827;SDS011;26549;50.918;5.338;2023-05-16T00:56:53;13.52;;;2.92;;
40827;SDS011;26549;50.918;5.338;2023-05-16T00:59:20;11.90;;;2.05;;
40827;SDS011;26549;50.918;5.338;2023-05-16T01:01:46;13.57;;;3.05;;
40827;SDS011;26549;50.918;5.338;2023-05-16T01:04:13;15.18;;;3.50;;
40827;SDS011;26549;50.918;5.338;2023-05-16T01:06:38;11.23;;;2.83;;
40827;SDS011;26549;50.918;5.338;2023-05-16T01:09:05;7.75;;;2.83;;
40827;SDS011;26549;50.918;5.338;2023-05-16T01:27:58;17.90;;;2.13;;
40827;SDS011;26549;50.918;5.338;2023-05-16T01:30:31;12.40;;;2.38;;
40827;SDS011;26549;50.918;5.338;2023-05-16T01:32:59;11.43;;;2.25;;
40827;SDS011;26549;50.918;5.338;2023-05-16T01:35:25;7.30;;;2.35;;
40827;SDS011;26549;50.918;5.338;2023-05-16T01:37:53;13.32;;;2.53;;
40827;SDS011;26549;50.918;5.338;2023-05-16T01:40:28;8.60;;;2.10;;
40827;SDS011;26549;50.918;5.338;2023-05-16T01:43:16;11.25;;;2.20;;
40827;SDS011;26549;50.918;5.338;2023-05-16T01:45:50;14.38;;;3.58;;
40827;SDS011;26549;50.918;5.338;2023-05-16T01:48:22;10.40;;;2.22;;
40827;SDS011;26549;50.918;5.338;2023-05-16T01:50:55;12.43;;;2.08;;
40827;SDS011;26549;50.918;5.338;2023-05-16T01:53:24;11.98;;;2.60;;
40827;SDS011;26549;50.918;5.338;2023-05-16T01:55:55;12.35;;;2.03;;
40827;SDS011;26549;50.918;5.338;2023-05-16T01:58:22;15.50;;;3.03;;
40827;SDS011;26549;50.918;5.338;2023-05-16T02:00:52;14.60;;;2.75;;
40827;SDS011;26549;50.918;5.338;2023-05-16T02:03:18;15.38;;;2.33;;
40827;SDS011;26549;50.918;5.338;2023-05-16T02:05:44;8.88;;;1.92;;
40827;SDS011;26549;50.918;5.338;2023-05-16T02:08:10;8.07;;;2.10;;
40827;SDS011;26549;50.918;5.338;2023-05-16T02:10:37;7.78;;;2.13;;
40827;SDS011;26549;50.918;5.338;2023-05-16T02:13:05;11.77;;;2.83;;
40827;SDS011;26549;50.918;5.338;2023-05-16T02:15:31;14.93;;;3.60;;
40827;SDS011;26549;50.918;5.338;2023-05-16T02:17:57;11.90;;;2.00;;
40827;SDS011;26549;50.918;5.338;2023-05-16T02:20:22;10.85;;;1.73;;
40827;SDS011;26549;50.918;5.338;2023-05-16T02:22:48;19.88;;;2.80;;
40827;SDS011;26549;50.918;5.338;2023-05-16T02:25:14;12.77;;;2.25;;
40827;SDS011;26549;50.918;5.338;2023-05-16T02:27:40;10.70;;;2.13;;
40827;SDS011;26549;50.918;5.338;2023-05-16T02:30:08;7.80;;;2.10;;
40827;SDS011;26549;50.918;5.338;2023-05-16T02:32:40;12.10;;;2.92;;
40827;SDS011;26549;50.918;5.338;2023-05-16T02:35:09;7.97;;;2.42;;
40827;SDS011;26549;50.918;5.338;2023-05-16T02:37:35;14.90;;;3.33;;
40827;SDS011;26549;50.918;5.338;2023-05-16T02:40:02;12.73;;;2.20;;
40827;SDS011;26549;50.918;5.338;2023-05-16T02:42:31;8.88;;;2.00;;
40827;SDS011;26549;50.918;5.338;2023-05-16T02:44:57;11.82;;;1.80;;
40827;SDS011;26549;50.918;5.338;2023-05-16T02:47:23;6.95;;;2.17;;
40827;SDS011;26549;50.918;5.338;2023-05-16T02:49:49;9.77;;;2.25;;
40827;SDS011;26549;50.918;5.338;2023-05-16T02:52:16;14.10;;;3.13;;
40827;SDS011;26549;50.918;5.338;2023-05-16T02:54:43;14.02;;;1.83;;
40827;SDS011;26549;50.918;5.338;2023-05-16T02:57:08;11.63;;;2.10;;
40827;SDS011;26549;50.918;5.338;2023-05-16T02:59:34;10.25;;;2.90;;
40827;SDS011;26549;50.918;5.338;2023-05-16T03:02:00;12.00;;;1.88;;
40827;SDS011;26549;50.918;5.338;2023-05-16T03:04:26;11.98;;;2.10;;
40827;SDS011;26549;50.918;5.338;2023-05-16T03:06:52;9.77;;;2.45;;
40827;SDS011;26549;50.918;5.338;2023-05-16T03:09:18;12.27;;;2.80;;
40827;SDS011;26549;50.918;5.338;2023-05-16T03:11:44;20.05;;;2.05;;
40827;SDS011;26549;50.918;5.338;2023-05-16T03:14:10;11.30;;;2.80;;
40827;SDS011;26549;50.918;5.338;2023-05-16T03:16:36;11.30;;;2.00;;
40827;SDS011;26549;50.918;5.338;2023-05-16T03:19:03;7.07;;;1.80;;
40827;SDS011;26549;50.918;5.338;2023-05-16T03:21:29;11.43;;;2.13;;
40827;SDS011;26549;50.918;5.338;2023-05-16T03:23:55;8.27;;;1.80;;
40827;SDS011;26549;50.918;5.338;2023-05-16T03:26:22;9.25;;;2.60;;
40827;SDS011;26549;50.918;5.338;2023-05-16T03:28:48;4.82;;;1.50;;
40827;SDS011;26549;50.918;5.338;2023-05-16T03:31:15;10.85;;;1.80;;
40827;SDS011;26549;50.918;5.338;2023-05-16T03:33:45;10.98;;;3.75;;
40827;SDS011;26549;50.918;5.338;2023-05-16T03:36:10;10.35;;;2.03;;
40827;SDS011;26549;50.918;5.338;2023-05-16T03:38:36;9.10;;;1.90;;
40827;SDS011;26549;50.918;5.338;2023-05-16T03:41:02;14.48;;;2.33;;
40827;SDS011;26549;50.918;5.338;2023-05-16T03:43:28;18.30;;;3.28;;
40827;SDS011;26549;50.918;5.338;2023-05-16T03:45:53;18.05;;;2.05;;
40827;SDS011;26549;50.918;5.338;2023-05-16T03:48:20;12.23;;;2.25;;
40827;SDS011;26549;50.918;5.338;2023-05-16T03:50:46;9.95;;;2.50;;
40827;SDS011;26549;50.918;5.338;2023-05-16T03:53:12;9.85;;;1.83;;
40827;SDS011;26549;50.918;5.338;2023-05-16T03:55:38;16.42;;;2.30;;
40827;SDS011;26549;50.918;5.338;2023-05-16T03:58:04;11.18;;;2.17;;
40827;SDS011;26549;50.918;5.338;2023-05-16T04:00:30;4.85;;;1.60;;
40827;SDS011;26549;50.918;5.338;2023-05-16T04:02:59;13.93;;;1.23;;
40827;SDS011;26549;50.918;5.338;2023-05-16T04:05:25;7.38;;;1.70;;
40827;SDS011;26549;50.918;5.338;2023-05-16T04:07:51;10.18;;;2.47;;
40827;SDS011;26549;50.918;5.338;2023-05-16T04:10:17;14.13;;;2.42;;
40827;SDS011;26549;50.918;5.338;2023-05-16T04:12:43;12.60;;;2.97;;
40827;SDS011;26549;50.918;5.338;2023-05-16T04:15:09;12.70;;;2.05;;
40827;SDS011;26549;50.918;5.338;2023-05-16T04:17:35;8.98;;;1.67;;
40827;SDS011;26549;50.918;5.338;2023-05-16T04:20:01;16.55;;;2.63;;
40827;SDS011;26549;50.918;5.338;2023-05-16T04:22:28;15.20;;;1.92;;
40827;SDS011;26549;50.918;5.338;2023-05-16T04:24:54;12.13;;;2.78;;
40827;SDS011;26549;50.918;5.338;2023-05-16T04:27:21;10.32;;;1.70;;
40827;SDS011;26549;50.918;5.338;2023-05-16T04:29:47;13.45;;;2.20;;
40827;SDS011;26549;50.918;5.338;2023-05-16T04:32:13;6.03;;;1.60;;
40827;SDS011;26549;50.918;5.338;2023-05-16T04:34:39;8.88;;;1.65;;
40827;SDS011;26549;50.918;5.338;2023-05-16T04:37:06;4.63;;;1.90;;
40827;SDS011;26549;50.918;5.338;2023-05-16T04:39:33;8.70;;;1.80;;
40827;SDS011;26549;50.918;5.338;2023-05-16T04:42:00;10.95;;;2.50;;
40827;SDS011;26549;50.918;5.338;2023-05-16T04:44:26;9.10;;;2.22;;
40827;SDS011;26549;50.918;5.338;2023-05-16T04:46:52;8.43;;;1.58;;
40827;SDS011;26549;50.918;5.338;2023-05-16T04:49:19;10.85;;;2.20;;
40827;SDS011;26549;50.918;5.338;2023-05-16T04:51:45;17.92;;;4.45;;
40827;SDS011;26549;50.918;5.338;2023-05-16T04:54:12;9.13;;;3.10;;
40827;SDS011;26549;50.918;5.338;2023-05-16T04:56:38;9.88;;;2.53;;
40827;SDS011;26549;50.918;5.338;2023-05-16T04:59:03;16.67;;;2.95;;
40827;SDS011;26549;50.918;5.338;2023-05-16T05:01:29;13.98;;;2.60;;
40827;SDS011;26549;50.918;5.338;2023-05-16T05:03:55;12.43;;;2.20;;
40827;SDS011;26549;50.918;5.338;2023-05-16T05:06:21;9.52;;;1.70;;
40827;SDS011;26549;50.918;5.338;2023-05-16T05:08:47;6.93;;;1.70;;
40827;SDS011;26549;50.918;5.338;2023-05-16T05:11:13;13.93;;;2.65;;
40827;SDS011;26549;50.918;5.338;2023-05-16T05:13:39;16.48;;;2.65;;
40827;SDS011;26549;50.918;5.338;2023-05-16T05:16:05;12.88;;;2.38;;
40827;SDS011;26549;50.918;5.338;2023-05-16T05:18:31;8.25;;;2.17;;
40827;SDS011;26549;50.918;5.338;2023-05-16T05:20:57;10.82;;;2.13;;
40827;SDS011;26549;50.918;5.338;2023-05-16T05:23:23;12.68;;;2.38;;
40827;SDS011;26549;50.918;5.338;2023-05-16T05:25:50;8.85;;;2.08;;
40827;SDS011;26549;50.918;5.338;2023-05-16T05:28:16;14.63;;;3.28;;
40827;SDS011;26549;50.918;5.338;2023-05-16T05:30:43;12.55;;;1.98;;
40827;SDS011;26549;50.918;5.338;2023-05-16T05:33:09;5.78;;;1.95;;
40827;SDS011;26549;50.918;5.338;2023-05-16T05:35:35;8.13;;;2.13;;
40827;SDS011;26549;50.918;5.338;2023-05-16T05:38:02;7.57;;;2.35;;
40827;SDS011;26549;50.918;5.338;2023-05-16T05:40:28;12.07;;;2.33;;
40827;SDS011;26549;50.918;5.338;2023-05-16T05:42:54;12.82;;;4.10;;
40827;SDS011;26549;50.918;5.338;2023-05-16T05:45:19;11.63;;;2.20;;
40827;SDS011;26549;50.918;5.338;2023-05-16T05:47:54;8.50;;;2.00;;
40827;SDS011;26549;50.918;5.338;2023-05-16T05:50:20;13.07;;;2.00;;
40827;SDS011;26549;50.918;5.338;2023-05-16T05:52:47;14.07;;;2.50;;
40827;SDS011;26549;50.918;5.338;2023-05-16T05:55:13;11.32;;;1.80;;
40827;SDS011;26549;50.918;5.338;2023-05-16T05:57:42;9.20;;;2.53;;
40827;SDS011;26549;50.918;5.338;2023-05-16T06:00:08;10.32;;;2.95;;
40827;SDS011;26549;50.918;5.338;2023-05-16T06:02:35;14.25;;;2.22;;
40827;SDS011;26549;50.918;5.338;2023-05-16T06:05:01;15.25;;;3.53;;
40827;SDS011;26549;50.918;5.338;2023-05-16T06:07:27;11.50;;;2.17;;
40827;SDS011;26549;50.918;5.338;2023-05-16T06:09:54;7.65;;;1.73;;
40827;SDS011;26549;50.918;5.338;2023-05-16T06:12:21;11.23;;;2.55;;
40827;SDS011;26549;50.918;5.338;2023-05-16T06:14:48;10.52;;;2.00;;
40827;SDS011;26549;50.918;5.338;2023-05-16T06:17:14;11.32;;;2.55;;
40827;SDS011;26549;50.918;5.338;2023-05-16T06:19:40;12.20;;;2.75;;
40827;SDS011;26549;50.918;5.338;2023-05-16T06:22:07;13.02;;;1.88;;
40827;SDS011;26549;50.918;5.338;2023-05-16T06:24:33;7.05;;;1.90;;
40827;SDS011;26549;50.918;5.338;2023-05-16T06:26:58;13.43;;;2.85;;
40827;SDS011;26549;50.918;5.338;2023-05-16T06:29:24;8.65;;;1.55;;
40827;SDS011;26549;50.918;5.338;2023-05-16T06:31:50;6.68;;;1.60;;
40827;SDS011;26549;50.918;5.338;2023-05-16T06:34:16;8.63;;;1.85;;
40827;SDS011;26549;50.918;5.338;2023-05-16T06:36:42;9.85;;;1.75;;
40827;SDS011;26549;50.918;5.338;2023-05-16T06:39:08;8.40;;;1.70;;
40827;SDS011;26549;50.918;5.338;2023-05-16T06:41:34;17.73;;;2.75;;
40827;SDS011;26549;50.918;5.338;2023-05-16T06:44:00;9.13;;;2.00;;
40827;SDS011;26549;50.918;5.338;2023-05-16T06:46:25;7.03;;;2.53;;
40827;SDS011;26549;50.918;5.338;2023-05-16T06:48:51;13.48;;;2.38;;
40827;SDS011;26549;50.918;5.338;2023-05-16T06:51:17;5.00;;;1.05;;
40827;SDS011;26549;50.918;5.338;2023-05-16T06:53:43;12.63;;;2.00;;
40827;SDS011;26549;50.918;5.338;2023-05-16T06:56:09;6.13;;;1.55;;
40827;SDS011;26549;50.918;5.338;2023-05-16T06:58:34;8.02;;;2.28;;
40827;SDS011;26549;50.918;5.338;2023-05-16T07:01:00;7.68;;;2.00;;
40827;SDS011;26549;50.918;5.338;2023-05-16T07:03:27;7.53;;;1.70;;
40827;SDS011;26549;50.918;5.338;2023-05-16T07:05:53;8.40;;;1.55;;
40827;SDS011;26549;50.918;5.338;2023-05-16T07:08:19;5.20;;;1.35;;
40827;SDS011;26549;50.918;5.338;2023-05-16T07:10:44;8.40;;;1.35;;
40827;SDS011;26549;50.918;5.338;2023-05-16T07:13:10;9.13;;;1.50;;
40827;SDS011;26549;50.918;5.338;2023-05-16T07:15:36;9.77;;;1.55;;
40827;SDS011;26549;50.918;5.338;2023-05-16T07:18:02;4.35;;;1.30;;
40827;SDS011;26549;50.918;5.338;2023-05-16T07:20:29;5.30;;;1.65;;
40827;SDS011;26549;50.918;5.338;2023-05-16T07:22:54;10.75;;;1.40;;
40827;SDS011;26549;50.918;5.338;2023-05-16T07:25:22;8.35;;;1.67;;
40827;SDS011;26549;50.918;5.338;2023-05-16T07:27:48;8.40;;;1.80;;
40827;SDS011;26549;50.918;5.338;2023-05-16T07:30:14;9.10;;;2.60;;
40827;SDS011;26549;50.918;5.338;2023-05-16T07:32:40;6.63;;;1.83;;
40827;SDS011;26549;50.918;5.338;2023-05-16T07:35:06;6.20;;;1.27;;
40827;SDS011;26549;50.918;5.338;2023-05-16T07:37:33;3.88;;;1.33;;
40827;SDS011;26549;50.918;5.338;2023-05-16T07:40:00;5.13;;;1.98;;
40827;SDS011;26549;50.918;5.338;2023-05-16T07:42:26;8.63;;;2.50;;
40827;SDS011;26549;50.918;5.338;2023-05-16T07:44:51;9.18;;;1.92;;
40827;SDS011;26549;50.918;5.338;2023-05-16T07:47:17;6.93;;;1.92;;
40827;SDS011;26549;50.918;5.338;2023-05-16T07:49:43;7.82;;;1.50;;
40827;SDS011;26549;50.918;5.338;2023-05-16T07:52:09;5.65;;;1.23;;
40827;SDS011;26549;50.918;5.338;2023-05-16T07:54:34;8.48;;;1.88;;
40827;SDS011;26549;50.918;5.338;2023-05-16T07:57:01;5.43;;;1.20;;
40827;SDS011;26549;50.918;5.338;2023-05-16T07:59:28;6.95;;;1.40;;
40827;SDS011;26549;50.918;5.338;2023-05-16T08:01:54;12.88;;;1.33;;
40827;SDS011;26549;50.918;5.338;2023-05-16T08:04:20;3.95;;;1.30;;
40827;SDS011;26549;50.918;5.338;2023-05-16T08:06:46;4.30;;;1.35;;
40827;SDS011;26549;50.918;5.338;2023-05-16T08:09:11;6.20;;;2.03;;
40827;SDS011;26549;50.918;5.338;2023-05-16T08:11:37;3.83;;;1.48;;
40827;SDS011;26549;50.918;5.338;2023-05-16T08:14:04;7.68;;;1.52;;
40827;SDS011;26549;50.918;5.338;2023-05-16T08:16:29;12.90;;;2.03;;
40827;SDS011;26549;50.918;5.338;2023-05-16T08:18:55;7.97;;;1.27;;
40827;SDS011;26549;50.918;5.338;2023-05-16T08:21:21;8.40;;;1.25;;
40827;SDS011;26549;50.918;5.338;2023-05-16T08:23:47;6.80;;;1.50;;
40827;SDS011;26549;50.918;5.338;2023-05-16T08:26:13;6.18;;;1.30;;
40827;SDS011;26549;50.918;5.338;2023-05-16T08:28:40;7.40;;;1.08;;
40827;SDS011;26549;50.918;5.338;2023-05-16T08:31:06;6.45;;;1.80;;
40827;SDS011;26549;50.918;5.338;2023-05-16T08:33:31;5.25;;;1.15;;
40827;SDS011;26549;50.918;5.338;2023-05-16T08:35:57;8.80;;;2.30;;
40827;SDS011;26549;50.918;5.338;2023-05-16T08:38:24;3.33;;;1.10;;
40827;SDS011;26549;50.918;5.338;2023-05-16T08:40:50;5.35;;;1.20;;
40827;SDS011;26549;50.918;5.338;2023-05-16T08:43:16;8.85;;;1.20;;
40827;SDS011;26549;50.918;5.338;2023-05-16T08:45:42;6.88;;;1.35;;
40827;SDS011;26549;50.918;5.338;2023-05-16T08:48:09;6.72;;;2.17;;
40827;SDS011;26549;50.918;5.338;2023-05-16T08:50:36;6.22;;;1.38;;
40827;SDS011;26549;50.918;5.338;2023-05-16T08:53:03;8.93;;;1.27;;
40827;SDS011;26549;50.918;5.338;2023-05-16T08:55:32;5.47;;;1.52;;
40827;SDS011;26549;50.918;5.338;2023-05-16T08:57:59;8.48;;;1.20;;
40827;SDS011;26549;50.918;5.338;2023-05-16T09:00:26;11.02;;;1.45;;
40827;SDS011;26549;50.918;5.338;2023-05-16T09:02:52;6.72;;;2.10;;
40827;SDS011;26549;50.918;5.338;2023-05-16T09:05:18;3.88;;;0.82;;
40827;SDS011;26549;50.918;5.338;2023-05-16T09:07:44;3.50;;;1.27;;
40827;SDS011;26549;50.918;5.338;2023-05-16T09:10:10;4.20;;;1.20;;
40827;SDS011;26549;50.918;5.338;2023-05-16T09:12:38;6.28;;;0.80;;
40827;SDS011;26549;50.918;5.338;2023-05-16T09:15:05;5.97;;;1.27;;
40827;SDS011;26549;50.918;5.338;2023-05-16T09:17:42;4.63;;;1.20;;
40827;SDS011;26549;50.918;5.338;2023-05-16T09:20:10;6.65;;;1.35;;
40827;SDS011;26549;50.918;5.338;2023-05-16T09:22:37;3.90;;;1.05;;
40827;SDS011;26549;50.918;5.338;2023-05-16T09:25:03;3.20;;;0.90;;
40827;SDS011;26549;50.918;5.338;2023-05-16T09:27:30;3.25;;;1.10;;
40827;SDS011;26549;50.918;5.338;2023-05-16T09:29:56;11.95;;;1.85;;
40827;SDS011;26549;50.918;5.338;2023-05-16T09:32:23;3.58;;;0.70;;
40827;SDS011;26549;50.918;5.338;2023-05-16T09:34:51;5.15;;;0.82;;
40827;SDS011;26549;50.918;5.338;2023-05-16T09:37:18;9.65;;;1.20;;
40827;SDS011;26549;50.918;5.338;2023-05-16T09:39:45;2.55;;;0.80;;
40827;SDS011;26549;50.918;5.338;2023-05-16T09:42:13;4.18;;;1.30;;
40827;SDS011;26549;50.918;5.338;2023-05-16T09:44:39;2.95;;;0.80;;
40827;SDS011;26549;50.918;5.338;2023-05-16T09:47:05;3.78;;;0.90;;
40827;SDS011;26549;50.918;5.338;2023-05-16T09:49:31;5.18;;;1.10;;
40827;SDS011;26549;50.918;5.338;2023-05-16T09:52:03;4.55;;;0.82;;
40827;SDS011;26549;50.918;5.338;2023-05-16T09:54:30;1.88;;;0.63;;
40827;SDS011;26549;50.918;5.338;2023-05-16T09:56:57;4.75;;;1.10;;
40827;SDS011;26549;50.918;5.338;2023-05-16T09:59:23;3.95;;;0.70;;
40827;SDS011;26549;50.918;5.338;2023-05-16T10:01:50;4.63;;;0.77;;
40827;SDS011;26549;50.918;5.338;2023-05-16T10:04:18;4.60;;;1.00;;
40827;SDS011;26549;50.918;5.338;2023-05-16T10:06:43;4.57;;;1.10;;
40827;SDS011;26549;50.918;5.338;2023-05-16T10:09:10;6.97;;;0.95;;
40827;SDS011;26549;50.918;5.338;2023-05-16T10:11:38;5.22;;;0.90;;
40827;SDS011;26549;50.918;5.338;2023-05-16T10:14:05;5.57;;;1.08;;
40827;SDS011;26549;50.918;5.338;2023-05-16T10:16:33;1.80;;;0.80;;
40827;SDS011;26549;50.918;5.338;2023-05-16T10:19:00;3.30;;;1.33;;
40827;SDS011;26549;50.918;5.338;2023-05-16T10:21:28;3.30;;;1.00;;
40827;SDS011;26549;50.918;5.338;2023-05-16T10:23:57;4.63;;;1.40;;
40827;SDS011;26549;50.918;5.338;2023-05-16T10:26:27;3.88;;;0.82;;
40827;SDS011;26549;50.918;5.338;2023-05-16T10:28:57;3.85;;;1.35;;
40827;SDS011;26549;50.918;5.338;2023-05-16T10:31:23;2.72;;;0.77;;
40827;SDS011;26549;50.918;5.338;2023-05-16T10:33:50;3.38;;;1.25;;
40827;SDS011;26549;50.918;5.338;2023-05-16T10:36:18;9.18;;;1.90;;
40827;SDS011;26549;50.918;5.338;2023-05-16T10:38:45;2.22;;;1.27;;
40827;SDS011;26549;50.918;5.338;2023-05-16T10:41:11;3.15;;;0.82;;
40827;SDS011;26549;50.918;5.338;2023-05-16T10:43:37;3.50;;;0.90;;
40827;SDS011;26549;50.918;5.338;2023-05-16T10:48:34;8.52;;;1.40;;
40827;SDS011;26549;50.918;5.338;2023-05-16T10:51:03;6.72;;;1.88;;
40827;SDS011;26549;50.918;5.338;2023-05-16T10:53:58;4.72;;;1.05;;
40827;SDS011;26549;50.918;5.338;2023-05-16T10:56:32;2.72;;;0.82;;
40827;SDS011;26549;50.918;5.338;2023-05-16T10:58:59;3.25;;;0.82;;
40827;SDS011;26549;50.918;5.338;2023-05-16T11:01:32;4.93;;;0.90;;
40827;SDS011;26549;50.918;5.338;2023-05-16T11:03:59;4.93;;;1.00;;
40827;SDS011;26549;50.918;5.338;2023-05-16T11:06:29;3.40;;;1.10;;
40827;SDS011;26549;50.918;5.338;2023-05-16T11:11:57;6.13;;;1.20;;
40827;SDS011;26549;50.918;5.338;2023-05-16T11:14:26;4.60;;;0.80;;
40827;SDS011;26549;50.918;5.338;2023-05-16T11:19:30;6.95;;;1.00;;
40827;SDS011;26549;50.918;5.338;2023-05-16T11:22:04;2.30;;;0.77;;
40827;SDS011;26549;50.918;5.338;2023-05-16T11:24:36;2.25;;;1.92;;
40827;SDS011;26549;50.918;5.338;2023-05-16T11:27:04;2.78;;;1.15;;
40827;SDS011;26549;50.918;5.338;2023-05-16T11:29:31;4.45;;;1.40;;
40827;SDS011;26549;50.918;5.338;2023-05-16T11:32:00;4.97;;;0.77;;
40827;SDS011;26549;50.918;5.338;2023-05-16T11:34:28;1.90;;;0.70;;
40827;SDS011;26549;50.918;5.338;2023-05-16T11:36:55;1.73;;;0.80;;
40827;SDS011;26549;50.918;5.338;2023-05-16T11:39:21;7.90;;;0.73;;
40827;SDS011;26549;50.918;5.338;2023-05-16T11:41:49;1.88;;;0.50;;
40827;SDS011;26549;50.918;5.338;2023-05-16T11:44:15;4.72;;;0.63;;
40827;SDS011;26549;50.918;5.338;2023-05-16T11:46:41;1.23;;;0.50;;
40827;SDS011;26549;50.918;5.338;2023-05-16T11:49:10;3.70;;;0.80;;
40827;SDS011;26549;50.918;5.338;2023-05-16T11:51:39;2.17;;;0.90;;
40827;SDS011;26549;50.918;5.338;2023-05-16T11:54:10;2.00;;;0.70;;
40827;SDS011;26549;50.918;5.338;2023-05-16T11:56:39;1.33;;;0.80;;
40827;SDS011;26549;50.918;5.338;2023-05-16T11:59:05;1.75;;;0.80;;
40827;SDS011;26549;50.918;5.338;2023-05-16T12:01:35;2.35;;;0.63;;
40827;SDS011;26549;50.918;5.338;2023-05-16T12:06:36;4.47;;;0.90;;
40827;SDS011;26549;50.918;5.338;2023-05-16T12:09:03;0.80;;;0.63;;
40827;SDS011;26549;50.918;5.338;2023-05-16T12:11:36;3.08;;;0.98;;
40827;SDS011;26549;50.918;5.338;2023-05-16T12:14:02;1.25;;;0.60;;
40827;SDS011;26549;50.918;5.338;2023-05-16T12:16:29;3.90;;;0.90;;
40827;SDS011;26549;50.918;5.338;2023-05-16T12:18:57;6.30;;;1.15;;
40827;SDS011;26549;50.918;5.338;2023-05-16T12:21:23;3.25;;;1.52;;
40827;SDS011;26549;50.918;5.338;2023-05-16T12:23:52;2.40;;;0.80;;
40827;SDS011;26549;50.918;5.338;2023-05-16T12:26:25;4.30;;;1.13;;
40827;SDS011;26549;50.918;5.338;2023-05-16T12:28:59;6.47;;;2.45;;
40827;SDS011;26549;50.918;5.338;2023-05-16T12:31:27;4.20;;;1.05;;
40827;SDS011;26549;50.918;5.338;2023-05-16T12:33:57;12.40;;;1.65;;
40827;SDS011;26549;50.918;5.338;2023-05-16T12:36:23;2.35;;;0.82;;
40827;SDS011;26549;50.918;5.338;2023-05-16T12:38:52;2.50;;;0.88;;
40827;SDS011;26549;50.918;5.338;2023-05-16T12:41:18;2.50;;;0.88;;
40827;SDS011;26549;50.918;5.338;2023-05-16T12:43:48;4.07;;;1.00;;
40827;SDS011;26549;50.918;5.338;2023-05-16T12:46:14;3.53;;;1.17;;
40827;SDS011;26549;50.918;5.338;2023-05-16T12:48:40;2.03;;;0.88;;
40827;SDS011;26549;50.918;5.338;2023-05-16T12:51:11;4.15;;;1.80;;
40827;SDS011;26549;50.918;5.338;2023-05-16T12:53:45;6.55;;;0.90;;
40827;SDS011;26549;50.918;5.338;2023-05-16T12:56:14;9.95;;;1.40;;
40827;SDS011;26549;50.918;5.338;2023-05-16T12:58:41;6.85;;;0.95;;
40827;SDS011;26549;50.918;5.338;2023-05-16T13:01:08;4.97;;;1.13;;
40827;SDS011;26549;50.918;5.338;2023-05-16T13:03:34;4.40;;;1.30;;
40827;SDS011;26549;50.918;5.338;2023-05-16T13:06:00;4.38;;;1.10;;
40827;SDS011;26549;50.918;5.338;2023-05-16T13:08:29;2.63;;;1.02;;
40827;SDS011;26549;50.918;5.338;2023-05-16T13:10:55;8.13;;;1.20;;
40827;SDS011;26549;50.918;5.338;2023-05-16T13:13:21;4.10;;;1.00;;
40827;SDS011;26549;50.918;5.338;2023-05-16T13:15:47;7.43;;;1.55;;
40827;SDS011;26549;50.918;5.338;2023-05-16T13:18:14;5.18;;;0.90;;
40827;SDS011;26549;50.918;5.338;2023-05-16T13:20:40;2.55;;;0.77;;
40827;SDS011;26549;50.918;5.338;2023-05-16T13:23:06;8.20;;;1.17;;
40827;SDS011;26549;50.918;5.338;2023-05-16T13:25:32;3.17;;;1.52;;
40827;SDS011;26549;50.918;5.338;2023-05-16T13:27:58;3.47;;;1.35;;
40827;SDS011;26549;50.918;5.338;2023-05-16T13:30:24;1.73;;;0.98;;
40827;SDS011;26549;50.918;5.338;2023-05-16T13:32:50;1.83;;;0.90;;
40827;SDS011;26549;50.918;5.338;2023-05-16T13:35:17;3.50;;;1.17;;
40827;SDS011;26549;50.918;5.338;2023-05-16T13:37:43;1.85;;;1.00;;
40827;SDS011;26549;50.918;5.338;2023-05-16T13:40:09;2.50;;;1.42;;
40827;SDS011;26549;50.918;5.338;2023-05-16T13:42:35;7.15;;;1.45;;
40827;SDS011;26549;50.918;5.338;2023-05-16T13:45:02;6.93;;;1.00;;
40827;SDS011;26549;50.918;5.338;2023-05-16T13:47:29;2.22;;;1.00;;
40827;SDS011;26549;50.918;5.338;2023-05-16T13:49:55;3.67;;;1.05;;
40827;SDS011;26549;50.918;5.338;2023-05-16T13:52:20;3.50;;;0.90;;
40827;SDS011;26549;50.918;5.338;2023-05-16T13:54:46;3.03;;;0.88;;
40827;SDS011;26549;50.918;5.338;2023-05-16T13:57:12;5.07;;;1.77;;
40827;SDS011;26549;50.918;5.338;2023-05-16T13:59:37;2.75;;;1.25;;
40827;SDS011;26549;50.918;5.338;2023-05-16T14:02:03;5.32;;;1.27;;
40827;SDS011;26549;50.918;5.338;2023-05-16T14:04:30;2.22;;;1.27;;
40827;SDS011;26549;50.918;5.338;2023-05-16T14:06:56;2.50;;;1.25;;
40827;SDS011;26549;50.918;5.338;2023-05-16T14:09:22;1.90;;;0.77;;
40827;SDS011;26549;50.918;5.338;2023-05-16T14:11:48;4.60;;;1.20;;
40827;SDS011;26549;50.918;5.338;2023-05-16T14:14:13;9.00;;;1.48;;
40827;SDS011;26549;50.918;5.338;2023-05-16T14:16:40;4.40;;;1.77;;
40827;SDS011;26549;50.918;5.338;2023-05-16T14:19:10;2.20;;;0.90;;
40827;SDS011;26549;50.918;5.338;2023-05-16T14:21:37;2.67;;;1.38;;
40827;SDS011;26549;50.918;5.338;2023-05-16T14:24:03;5.00;;;1.40;;
40827;SDS011;26549;50.918;5.338;2023-05-16T14:26:29;2.45;;;1.08;;
40827;SDS011;26549;50.918;5.338;2023-05-16T14:28:56;6.20;;;1.30;;
40827;SDS011;26549;50.918;5.338;2023-05-16T14:31:22;3.17;;;1.00;;
40827;SDS011;26549;50.918;5.338;2023-05-16T14:33:47;4.22;;;1.00;;
40827;SDS011;26549;50.918;5.338;2023-05-16T14:36:14;3.35;;;1.00;;
40827;SDS011;26549;50.918;5.338;2023-05-16T14:38:41;2.60;;;1.00;;
40827;SDS011;26549;50.918;5.338;2023-05-16T14:41:07;4.47;;;1.17;;
40827;SDS011;26549;50.918;5.338;2023-05-16T14:43:32;2.97;;;1.05;;
40827;SDS011;26549;50.918;5.338;2023-05-16T14:45:58;2.45;;;1.42;;
40827;SDS011;26549;50.918;5.338;2023-05-16T14:48:24;4.90;;;1.55;;
40827;SDS011;26549;50.918;5.338;2023-05-16T14:50:50;2.85;;;1.15;;
40827;SDS011;26549;50.918;5.338;2023-05-16T14:53:17;2.85;;;1.10;;
40827;SDS011;26549;50.918;5.338;2023-05-16T14:55:43;2.47;;;1.35;;
40827;SDS011;26549;50.918;5.338;2023-05-16T14:58:10;3.90;;;0.90;;
40827;SDS011;26549;50.918;5.338;2023-05-16T15:00:36;2.47;;;1.08;;
40827;SDS011;26549;50.918;5.338;2023-05-16T15:03:02;1.98;;;0.90;;
40827;SDS011;26549;50.918;5.338;2023-05-16T15:05:27;2.72;;;1.30;;
40827;SDS011;26549;50.918;5.338;2023-05-16T15:07:53;5.85;;;2.10;;